createdAt,value
2018-04-23T00:02:05.618Z,17.13
2018-04-23T00:04:33.061Z,17.03
2018-04-23T00:07:00.537Z,16.03
2018-04-23T00:09:27.975Z,18.30
2018-04-23T00:11:55.457Z,17.90
2018-04-23T00:14:22.912Z,18.90
2018-04-23T00:16:50.366Z,17.97
2018-04-23T00:19:17.812Z,16.07
2018-04-23T00:21:45.252Z,17.37
2018-04-23T00:24:12.742Z,17.30
2018-04-23T00:26:40.181Z,15.90
2018-04-23T00:29:07.622Z,17.85
2018-04-23T00:31:35.063Z,16.83
2018-04-23T00:34:02.504Z,16.70
2018-04-23T00:36:29.938Z,17.10
2018-04-23T00:38:57.481Z,19.60
2018-04-23T00:41:24.930Z,17.63
2018-04-23T00:43:52.401Z,19.20
2018-04-23T00:46:19.833Z,18.57
2018-04-23T00:48:47.310Z,20.07
2018-04-23T00:51:14.746Z,21.83
2018-04-23T00:53:42.178Z,21.57
2018-04-23T00:56:09.749Z,20.90
2018-04-23T00:58:37.181Z,21.90
2018-04-23T01:01:04.699Z,19.53
2018-04-23T01:03:32.145Z,18.63
2018-04-23T01:05:59.577Z,18.67
2018-04-23T01:08:27.010Z,20.13
2018-04-23T01:10:54.460Z,19.10
2018-04-23T01:13:21.893Z,20.20
2018-04-23T01:15:49.320Z,18.20
2018-04-23T01:18:16.770Z,18.27
2018-04-23T01:20:44.248Z,19.50
2018-04-23T01:23:11.720Z,18.73
2018-04-23T01:25:39.170Z,18.60
2018-04-23T01:28:06.622Z,20.10
2018-04-23T01:30:34.080Z,18.87
2018-04-23T01:33:01.536Z,18.33
2018-04-23T01:35:28.964Z,19.33
2018-04-23T01:37:56.388Z,17.90
2018-04-23T01:40:23.832Z,18.27
2018-04-23T01:42:51.262Z,18.00
2018-04-23T01:45:18.693Z,18.77
2018-04-23T01:47:46.674Z,17.42
2018-04-23T01:50:14.114Z,19.33
2018-04-23T01:52:41.569Z,19.00
2018-04-23T01:55:09.021Z,17.87
2018-04-23T01:57:36.526Z,17.90
2018-04-23T02:00:03.960Z,17.87
2018-04-23T02:02:31.433Z,17.53
2018-04-23T02:04:58.873Z,16.70
2018-04-23T02:07:26.349Z,18.17
2018-04-23T02:09:53.793Z,18.47
2018-04-23T02:12:21.269Z,17.93
2018-04-23T02:14:48.724Z,18.20
2018-04-23T02:17:16.168Z,18.77
2018-04-23T02:19:43.629Z,16.73
2018-04-23T02:22:11.067Z,17.43
2018-04-23T02:24:38.550Z,16.97
2018-04-23T02:27:05.984Z,17.77
2018-04-23T02:29:33.422Z,19.30
2018-04-23T02:32:00.870Z,16.57
2018-04-23T02:34:28.376Z,16.70
2018-04-23T02:36:55.805Z,18.67
2018-04-23T02:39:23.252Z,19.57
2018-04-23T02:41:51.029Z,16.53
2018-04-23T02:44:18.462Z,18.00
2018-04-23T02:46:45.912Z,18.37
2018-04-23T02:49:13.368Z,18.23
2018-04-23T02:51:40.801Z,18.10
2018-04-23T02:54:08.250Z,19.37
2018-04-23T02:56:35.702Z,18.70
2018-04-23T02:59:03.131Z,19.63
2018-04-23T03:01:30.581Z,18.20
2018-04-23T03:03:58.073Z,19.40
2018-04-23T03:06:25.503Z,17.13
2018-04-23T03:08:52.957Z,17.40
2018-04-23T03:11:20.385Z,18.70
2018-04-23T03:13:47.831Z,18.33
2018-04-23T03:16:15.277Z,17.23
2018-04-23T03:18:42.713Z,16.93
2018-04-23T03:21:10.144Z,16.10
2018-04-23T03:23:37.597Z,19.63
2018-04-23T03:26:05.753Z,17.70
2018-04-23T03:28:33.189Z,18.17
2018-04-23T03:31:00.740Z,17.10
2018-04-23T03:33:28.172Z,18.10
2018-04-23T03:35:55.633Z,39.70
2018-04-23T03:38:23.081Z,22.77
2018-04-23T03:40:50.541Z,19.83
2018-04-23T03:43:18.003Z,19.63
2018-04-23T03:45:45.462Z,18.57
2018-04-23T03:48:12.895Z,19.03
2018-04-23T03:50:40.342Z,17.20
2018-04-23T03:53:07.793Z,16.20
2018-04-23T03:55:35.244Z,18.33
2018-04-23T03:58:02.746Z,18.08
2018-04-23T04:00:30.185Z,19.83
2018-04-23T04:02:57.621Z,16.63
2018-04-23T04:05:25.136Z,17.80
2018-04-23T04:07:52.681Z,18.37
2018-04-23T04:10:20.114Z,18.00
2018-04-23T04:12:59.367Z,18.17
2018-04-23T04:15:38.693Z,17.30
2018-04-23T04:31:32.665Z,17.20
2018-04-23T04:34:00.099Z,15.43
2018-04-23T04:36:27.539Z,18.93
2018-04-23T04:38:55.039Z,17.87
2018-04-23T04:41:22.466Z,18.47
2018-04-23T04:43:49.946Z,18.03
2018-04-23T04:46:17.392Z,17.47
2018-04-23T04:48:44.828Z,17.70
2018-04-23T04:51:12.256Z,17.80
2018-04-23T04:53:39.701Z,18.23
2018-04-23T04:56:07.136Z,17.57
2018-04-23T04:58:34.559Z,19.07
2018-04-23T05:01:02.008Z,19.57
2018-04-23T05:03:29.441Z,17.13
2018-04-23T05:05:57.018Z,16.63
2018-04-23T05:08:24.436Z,17.97
2018-04-23T05:10:51.883Z,16.83
2018-04-23T05:13:19.321Z,18.30
2018-04-23T05:15:46.777Z,19.30
2018-04-23T05:18:14.295Z,16.57
2018-04-23T05:20:41.721Z,17.53
2018-04-23T05:23:09.165Z,19.23
2018-04-23T05:25:36.621Z,19.67
2018-04-23T05:28:04.057Z,19.00
2018-04-23T05:30:31.545Z,17.73
2018-04-23T05:32:58.976Z,18.20
2018-04-23T05:35:26.410Z,16.37
2018-04-23T05:37:53.909Z,17.70
2018-04-23T05:40:21.350Z,17.00
2018-04-23T05:42:48.793Z,17.30
2018-04-23T05:45:16.241Z,17.00
2018-04-23T05:47:43.692Z,18.77
2018-04-23T05:50:11.205Z,17.27
2018-04-23T05:52:38.646Z,17.90
2018-04-23T05:55:06.082Z,18.57
2018-04-23T05:57:33.521Z,16.70
2018-04-23T06:00:01.027Z,17.53
2018-04-23T06:02:28.459Z,16.60
2018-04-23T06:04:55.941Z,19.50
2018-04-23T06:07:23.402Z,19.93
2018-04-23T06:09:50.835Z,20.80
2018-04-23T06:12:18.274Z,20.13
2018-04-23T06:14:45.769Z,18.47
2018-04-23T06:17:13.208Z,20.77
2018-04-23T06:19:40.681Z,28.60
2018-04-23T06:22:08.102Z,21.20
2018-04-23T06:24:35.615Z,18.97
2018-04-23T06:27:03.048Z,22.27
2018-04-23T06:29:30.776Z,20.10
2018-04-23T06:31:58.257Z,18.37
2018-04-23T06:34:25.698Z,19.70
2018-04-23T06:36:53.164Z,19.40
2018-04-23T06:39:20.601Z,20.90
2018-04-23T06:41:48.108Z,19.80
2018-04-23T06:44:15.566Z,18.47
2018-04-23T06:46:43.024Z,20.53
2018-04-23T06:49:10.462Z,20.03
2018-04-23T06:51:37.902Z,20.77
2018-04-23T06:54:05.335Z,19.73
2018-04-23T06:56:32.768Z,21.43
2018-04-23T06:59:00.259Z,21.27
2018-04-23T07:01:27.665Z,20.20
2018-04-23T07:03:55.134Z,33.10
2018-04-23T07:06:22.689Z,24.67
2018-04-23T07:08:50.266Z,21.63
2018-04-23T07:11:17.681Z,22.10
2018-04-23T07:13:45.162Z,21.00
2018-04-23T07:16:12.616Z,21.50
2018-04-23T07:18:40.142Z,24.10
2018-04-23T07:21:07.588Z,22.07
2018-04-23T07:23:35.038Z,24.27
2018-04-23T07:26:02.478Z,20.50
2018-04-23T07:28:29.922Z,18.70
2018-04-23T07:30:57.356Z,22.20
2018-04-23T07:33:24.780Z,21.17
2018-04-23T07:35:52.267Z,21.17
2018-04-23T07:38:19.757Z,21.03
2018-04-23T07:40:47.297Z,21.13
2018-04-23T07:43:14.752Z,22.27
2018-04-23T07:45:42.206Z,22.33
2018-04-23T07:48:09.638Z,22.70
2018-04-23T07:50:37.089Z,21.23
2018-04-23T07:53:04.541Z,20.80
2018-04-23T07:55:32.030Z,20.03
2018-04-23T07:57:59.476Z,40.67
2018-04-23T08:00:26.932Z,30.10
2018-04-23T08:02:54.368Z,21.67
2018-04-23T08:05:21.811Z,22.00
2018-04-23T08:07:49.313Z,21.43
2018-04-23T08:10:16.745Z,15.53
2018-04-23T08:12:44.242Z,22.87
2018-04-23T08:15:11.685Z,22.07
2018-04-23T08:17:39.124Z,22.03
2018-04-23T08:20:07.372Z,21.33
2018-04-23T08:22:34.852Z,18.83
2018-04-23T08:25:02.299Z,17.20
2018-04-23T08:27:29.752Z,17.67
2018-04-23T08:29:57.184Z,16.77
2018-04-23T08:32:24.630Z,16.90
2018-04-23T08:34:52.157Z,15.60
2018-04-23T08:37:19.614Z,15.30
2018-04-23T08:39:47.048Z,16.43
2018-04-23T08:42:14.636Z,13.80
2018-04-23T08:44:42.074Z,15.50
2018-04-23T08:47:09.561Z,16.23
2018-04-23T08:49:37.004Z,15.50
2018-04-23T08:52:04.437Z,14.73
2018-04-23T08:54:31.925Z,15.67
2018-04-23T08:56:59.372Z,13.40
2018-04-23T08:59:26.819Z,15.70
2018-04-23T09:01:54.249Z,15.20
2018-04-23T09:04:21.753Z,14.80
2018-04-23T09:06:49.199Z,15.50
2018-04-23T09:09:16.625Z,15.77
2018-04-23T09:11:44.081Z,15.03
2018-04-23T09:14:11.605Z,14.40
2018-04-23T09:16:39.042Z,14.53
2018-04-23T09:19:06.495Z,13.90
2018-04-23T09:21:33.958Z,15.37
2018-04-23T09:24:01.401Z,14.57
2018-04-23T09:26:28.868Z,13.50
2018-04-23T09:28:56.298Z,15.27
2018-04-23T09:31:23.729Z,15.10
2018-04-23T09:33:51.189Z,14.87
2018-04-23T09:36:18.867Z,14.07
2018-04-23T09:38:46.305Z,15.30
2018-04-23T09:41:13.745Z,12.33
2018-04-23T09:43:41.184Z,13.90
2018-04-23T09:46:08.621Z,13.03
2018-04-23T09:48:36.084Z,13.93
2018-04-23T09:51:03.524Z,13.90
2018-04-23T09:53:30.998Z,12.07
2018-04-23T09:55:58.436Z,13.17
2018-04-23T09:58:25.882Z,12.60
2018-04-23T10:00:53.312Z,12.67
2018-04-23T10:03:30.673Z,12.97
2018-04-23T10:05:58.100Z,16.40
2018-04-23T10:08:25.541Z,11.57
2018-04-23T10:10:53.000Z,11.13
2018-04-23T10:13:20.433Z,11.40
2018-04-23T10:15:47.864Z,12.80
2018-04-23T10:18:15.296Z,8.43
2018-04-23T10:20:42.733Z,8.97
2018-04-23T10:23:10.160Z,9.50
2018-04-23T10:25:37.597Z,9.77
2018-04-23T10:28:05.029Z,7.63
2018-04-23T10:30:32.457Z,9.67
2018-04-23T10:32:59.929Z,11.07
2018-04-23T10:35:27.402Z,9.40
2018-04-23T10:37:54.859Z,9.17
2018-04-23T10:40:22.315Z,9.50
2018-04-23T10:42:49.774Z,14.53
2018-04-23T10:45:17.200Z,9.27
2018-04-23T10:47:44.689Z,10.43
2018-04-23T10:50:12.122Z,8.70
2018-04-23T10:52:39.549Z,7.10
2018-04-23T10:55:06.997Z,11.93
2018-04-23T10:57:34.509Z,8.50
2018-04-23T11:00:01.967Z,7.80
2018-04-23T11:02:29.459Z,7.20
2018-04-23T11:04:56.888Z,7.13
2018-04-23T11:07:24.330Z,7.23
2018-04-23T11:09:51.769Z,6.57
2018-04-23T11:12:19.283Z,5.40
2018-04-23T11:14:46.710Z,6.40
2018-04-23T11:17:14.150Z,4.90
2018-04-23T11:19:41.700Z,6.23
2018-04-23T11:22:09.186Z,5.03
2018-04-23T11:24:36.641Z,8.83
2018-04-23T11:27:04.098Z,5.97
2018-04-23T11:29:31.566Z,9.60
2018-04-23T11:31:59.024Z,9.43
2018-04-23T11:34:26.469Z,5.30
2018-04-23T11:36:54.031Z,6.70
2018-04-23T11:39:21.517Z,6.73
2018-04-23T11:41:48.945Z,5.47
2018-04-23T11:44:16.361Z,5.73
2018-04-23T11:46:43.861Z,5.63
2018-04-23T11:49:11.293Z,7.47
2018-04-23T11:51:38.781Z,4.97
2018-04-23T11:54:06.220Z,6.20
2018-04-23T11:56:33.637Z,7.43
2018-04-23T11:59:01.147Z,5.80
2018-04-23T12:01:28.593Z,6.90
2018-04-23T12:03:56.133Z,8.60
2018-04-23T12:06:23.553Z,8.53
2018-04-23T12:08:50.996Z,7.90
2018-04-23T12:11:18.430Z,4.90
2018-04-23T12:13:45.860Z,7.23
2018-04-23T12:16:13.397Z,4.80
2018-04-23T12:18:40.776Z,5.83
2018-04-23T12:21:08.260Z,6.77
2018-04-23T12:23:35.718Z,5.63
2018-04-23T12:26:03.180Z,6.50
2018-04-23T12:28:30.611Z,5.70
2018-04-23T12:30:58.083Z,4.93
2018-04-23T12:33:25.511Z,7.40
2018-04-23T12:35:53.013Z,16.00
2018-04-23T12:38:20.461Z,12.67
2018-04-23T12:40:47.885Z,7.80
2018-04-23T12:43:15.328Z,9.33
2018-04-23T12:45:42.833Z,12.33
2018-04-23T12:48:10.291Z,11.70
2018-04-23T12:50:37.718Z,20.03
2018-04-23T12:53:05.155Z,24.87
2018-04-23T12:55:32.593Z,15.93
2018-04-23T12:58:00.028Z,23.70
2018-04-23T13:00:27.477Z,12.53
2018-04-23T13:02:54.905Z,7.43
2018-04-23T13:05:22.395Z,17.83
2018-04-23T13:07:50.765Z,8.48
2018-04-23T13:10:18.189Z,13.17
2018-04-23T13:12:45.608Z,6.80
2018-04-23T13:15:13.107Z,6.63
2018-04-23T13:17:40.525Z,14.03
2018-04-23T13:20:08.025Z,9.13
2018-04-23T13:22:35.514Z,11.37
2018-04-23T13:25:02.955Z,8.07
2018-04-23T13:27:30.383Z,5.77
2018-04-23T13:29:57.825Z,7.37
2018-04-23T13:32:25.249Z,9.97
2018-04-23T13:34:52.696Z,8.83
2018-04-23T13:37:20.129Z,8.27
2018-04-23T13:39:47.564Z,10.70
2018-04-23T13:42:15.012Z,8.90
2018-04-23T13:44:42.516Z,10.00
2018-04-23T13:47:09.948Z,8.03
2018-04-23T13:49:37.434Z,13.23
2018-04-23T13:52:04.885Z,8.90
2018-04-23T13:54:32.326Z,9.83
2018-04-23T13:56:59.741Z,8.13
2018-04-23T13:59:27.198Z,11.17
2018-04-23T14:01:54.725Z,8.77
2018-04-23T14:04:22.152Z,10.27
2018-04-23T14:06:49.599Z,11.27
2018-04-23T14:09:17.025Z,7.30
2018-04-23T14:11:44.462Z,10.47
2018-04-23T14:14:11.896Z,10.30
2018-04-23T14:16:39.339Z,11.20
2018-04-23T14:19:06.793Z,10.00
2018-04-23T14:21:34.232Z,6.73
2018-04-23T14:24:01.720Z,10.53
2018-04-23T14:26:29.117Z,9.23
2018-04-23T14:28:56.563Z,7.70
2018-04-23T14:31:24.077Z,11.40
2018-04-23T14:33:51.496Z,10.93
2018-04-23T14:36:18.948Z,12.30
2018-04-23T14:38:46.368Z,7.30
2018-04-23T14:41:13.803Z,6.10
2018-04-23T14:43:41.240Z,7.57
2018-04-23T14:46:08.756Z,10.50
2018-04-23T14:48:36.194Z,13.43
2018-04-23T14:51:03.632Z,7.67
2018-04-23T14:53:31.118Z,6.80
2018-04-23T14:55:58.543Z,6.50
2018-04-23T14:58:25.981Z,7.17
2018-04-23T15:00:54.344Z,8.47
2018-04-23T15:03:21.765Z,5.73
2018-04-23T15:05:49.209Z,7.47
2018-04-23T15:08:16.687Z,8.23
2018-04-23T15:10:44.125Z,5.57
2018-04-23T15:13:11.569Z,6.67
2018-04-23T15:15:39.050Z,4.67
2018-04-23T15:18:06.538Z,5.25
2018-04-23T15:20:33.973Z,7.20
2018-04-23T15:23:01.400Z,3.93
2018-04-23T15:25:28.832Z,5.80
2018-04-23T15:27:56.328Z,3.00
2018-04-23T15:30:23.761Z,7.60
2018-04-23T15:32:51.190Z,4.73
2018-04-23T15:35:18.676Z,5.13
2018-04-23T15:37:46.096Z,5.23
2018-04-23T15:40:13.522Z,5.83
2018-04-23T15:42:41.000Z,5.93
2018-04-23T15:45:08.421Z,5.03
2018-04-23T15:47:35.855Z,5.37
2018-04-23T15:50:03.346Z,5.93
2018-04-23T15:52:30.811Z,5.67
2018-04-23T15:54:58.245Z,5.50
2018-04-23T15:57:25.721Z,7.97
2018-04-23T15:59:53.150Z,5.10
2018-04-23T16:02:20.573Z,6.40
2018-04-23T16:04:48.088Z,8.53
2018-04-23T16:07:15.521Z,5.67
2018-04-23T16:09:42.961Z,9.20
2018-04-23T16:12:10.463Z,6.07
2018-04-23T16:14:37.891Z,5.50
2018-04-23T16:17:05.313Z,4.40
2018-04-23T16:19:32.753Z,4.93
2018-04-23T16:22:00.172Z,6.40
2018-04-23T16:24:27.601Z,6.50
2018-04-23T16:26:55.055Z,5.80
2018-04-23T16:29:22.568Z,5.07
2018-04-23T16:31:49.995Z,6.20
2018-04-23T16:34:17.441Z,6.53
2018-04-23T16:36:44.951Z,5.03
2018-04-23T16:39:12.377Z,4.80
2018-04-23T16:41:39.828Z,5.27
2018-04-23T16:44:07.271Z,8.33
2018-04-23T16:46:34.714Z,6.50
2018-04-23T16:49:02.223Z,11.53
2018-04-23T16:51:29.659Z,6.23
2018-04-23T16:53:57.080Z,6.47
2018-04-23T16:56:24.521Z,7.97
2018-04-23T16:58:51.956Z,5.60
2018-04-23T17:01:19.384Z,4.43
2018-04-23T17:03:46.826Z,10.13
2018-04-23T17:06:14.264Z,6.20
2018-04-23T17:08:41.692Z,8.40
2018-04-23T17:11:09.142Z,7.60
2018-04-23T17:13:36.576Z,6.77
2018-04-23T17:16:04.002Z,5.03
2018-04-23T17:18:31.446Z,4.73
2018-04-23T17:20:58.869Z,6.60
2018-04-23T17:23:26.297Z,14.87
2018-04-23T17:25:53.743Z,5.53
2018-04-23T17:28:21.180Z,7.13
2018-04-23T17:30:48.604Z,10.20
2018-04-23T17:33:16.156Z,8.47
2018-04-23T17:35:43.592Z,7.70
2018-04-23T17:38:11.150Z,9.53
2018-04-23T17:40:38.606Z,7.80
2018-04-23T17:43:06.068Z,13.87
2018-04-23T17:45:33.494Z,8.57
2018-04-23T17:48:00.940Z,7.73
2018-04-23T17:50:28.368Z,18.47
2018-04-23T17:52:55.803Z,9.33
2018-04-23T17:55:23.259Z,8.97
2018-04-23T17:57:50.715Z,7.67
2018-04-23T18:00:18.136Z,6.90
2018-04-23T18:02:45.644Z,6.33
2018-04-23T18:05:13.088Z,6.30
2018-04-23T18:07:40.538Z,7.60
2018-04-23T18:10:08.004Z,7.43
2018-04-23T18:12:35.458Z,12.67
2018-04-23T18:15:02.914Z,5.20
2018-04-23T18:17:30.382Z,10.80
2018-04-23T18:19:57.810Z,6.83
2018-04-23T18:22:25.233Z,8.43
2018-04-23T18:24:52.793Z,6.20
2018-04-23T18:27:20.225Z,5.87
2018-04-23T18:29:47.677Z,4.57
2018-04-23T18:32:15.129Z,10.43
2018-04-23T18:34:42.553Z,7.60
2018-04-23T18:37:09.989Z,7.40
2018-04-23T18:39:37.435Z,7.03
2018-04-23T18:42:04.936Z,7.87
2018-04-23T18:44:32.362Z,10.00
2018-04-23T18:46:59.821Z,8.17
2018-04-23T18:49:27.254Z,7.90
2018-04-23T18:51:54.691Z,9.77
2018-04-23T18:54:22.126Z,9.80
2018-04-23T18:56:49.573Z,8.60
2018-04-23T18:59:16.998Z,10.47
2018-04-23T19:01:44.450Z,10.83
2018-04-23T19:04:11.887Z,6.33
2018-04-23T19:06:39.318Z,9.20
2018-04-23T19:09:06.867Z,9.20
2018-04-23T19:11:34.300Z,10.73
2018-04-23T19:14:01.730Z,9.13
2018-04-23T19:16:29.226Z,8.23
2018-04-23T19:18:56.653Z,7.63
2018-04-23T19:21:24.093Z,7.37
2018-04-23T19:23:51.529Z,6.90
2018-04-23T19:26:18.960Z,13.33
2018-04-23T19:28:46.423Z,8.60
2018-04-23T19:31:13.862Z,9.40
2018-04-23T19:33:41.293Z,9.17
2018-04-23T19:36:08.748Z,9.40
2018-04-23T19:38:36.258Z,10.80
2018-04-23T19:41:03.652Z,9.47
2018-04-23T19:43:31.098Z,9.30
2018-04-23T19:45:58.564Z,10.10
2018-04-23T19:48:26.067Z,13.60
2018-04-23T19:50:53.490Z,17.90
2018-04-23T19:53:20.942Z,8.07
2018-04-23T19:55:48.377Z,10.17
2018-04-23T19:58:15.801Z,4.47
2018-04-23T20:00:43.261Z,10.20
2018-04-23T20:03:10.690Z,8.30
2018-04-23T20:05:38.113Z,7.13
2018-04-23T20:08:05.565Z,6.03
2018-04-23T20:10:33.069Z,11.67
2018-04-23T20:13:00.528Z,10.03
2018-04-23T20:15:27.987Z,5.73
2018-04-23T20:17:55.410Z,7.00
2018-04-23T20:20:22.893Z,9.37
2018-04-23T20:22:50.334Z,6.77
2018-04-23T20:25:17.762Z,11.60
2018-04-23T20:27:45.236Z,10.10
2018-04-23T20:30:12.682Z,10.98
2018-04-23T20:32:40.108Z,9.67
2018-04-23T20:35:07.552Z,7.73
2018-04-23T20:37:35.010Z,11.00
2018-04-23T20:40:02.448Z,14.63
2018-04-23T20:42:29.867Z,9.33
2018-04-23T20:44:57.365Z,8.10
2018-04-23T20:47:24.836Z,12.50
2018-04-23T20:49:52.260Z,10.30
2018-04-23T20:52:19.711Z,12.50
2018-04-23T20:54:47.205Z,8.60
2018-04-23T20:57:14.629Z,11.43
2018-04-23T20:59:42.107Z,6.77
2018-04-23T21:02:09.639Z,10.20
2018-04-23T21:04:37.176Z,8.93
2018-04-23T21:07:04.757Z,9.43
2018-04-23T21:09:32.521Z,10.53
2018-04-23T21:11:59.961Z,11.70
2018-04-23T21:14:27.481Z,9.07
2018-04-23T21:16:55.042Z,7.00
2018-04-23T21:19:22.558Z,9.57
2018-04-23T21:21:50.139Z,10.97
2018-04-23T21:24:17.842Z,10.30
2018-04-23T21:26:45.534Z,8.93
2018-04-23T21:29:13.029Z,12.23
2018-04-23T21:31:40.547Z,11.53
2018-04-23T21:34:08.023Z,13.53
2018-04-23T21:36:35.675Z,10.77
2018-04-23T21:39:03.133Z,12.90
2018-04-23T21:41:30.852Z,12.70
2018-04-23T21:43:58.529Z,15.33
2018-04-23T21:46:25.964Z,11.47
2018-04-23T21:48:53.389Z,12.27
2018-04-23T21:51:20.829Z,13.40
2018-04-23T21:53:48.385Z,14.50
2018-04-23T21:56:15.813Z,12.00
2018-04-23T21:58:43.333Z,10.90
2018-04-23T22:01:10.753Z,8.33
2018-04-23T22:03:38.181Z,10.03
2018-04-23T22:06:05.620Z,9.37
2018-04-23T22:08:33.065Z,10.77
2018-04-23T22:11:00.501Z,14.03
2018-04-23T22:13:27.957Z,8.90
2018-04-23T22:15:55.394Z,12.67
2018-04-23T22:18:22.857Z,10.80
2018-04-23T22:20:50.286Z,12.80
2018-04-23T22:23:17.706Z,9.40
2018-04-23T22:25:45.253Z,10.63
2018-04-23T22:28:12.696Z,9.07
2018-04-23T22:30:40.133Z,12.73
2018-04-23T22:33:07.576Z,10.50
2018-04-23T22:35:35.032Z,11.30
2018-04-23T22:38:02.468Z,12.70
2018-04-23T22:40:29.906Z,11.53
2018-04-23T22:42:57.350Z,9.37
2018-04-23T22:45:24.786Z,11.07
2018-04-23T22:47:52.224Z,11.23
2018-04-23T22:50:19.675Z,12.05
2018-04-23T22:52:47.101Z,8.30
2018-04-23T22:55:14.637Z,12.77
2018-04-23T22:57:42.077Z,13.87
2018-04-23T23:00:09.505Z,8.23
2018-04-23T23:02:36.936Z,12.30
2018-04-23T23:05:04.516Z,11.70
2018-04-23T23:07:32.130Z,10.07
2018-04-23T23:09:59.593Z,9.57
2018-04-23T23:12:27.029Z,9.60
2018-04-23T23:14:54.457Z,12.20
2018-04-23T23:17:21.957Z,8.47
2018-04-23T23:19:49.392Z,8.80
2018-04-23T23:22:16.828Z,11.23
2018-04-23T23:24:44.252Z,13.13
2018-04-23T23:27:11.688Z,11.87
2018-04-23T23:29:39.129Z,8.60
2018-04-23T23:32:06.593Z,9.10
2018-04-23T23:34:34.034Z,10.47
2018-04-23T23:37:01.466Z,8.13
2018-04-23T23:39:28.889Z,8.23
2018-04-23T23:41:56.325Z,11.97
2018-04-23T23:44:23.749Z,11.70
2018-04-23T23:46:51.184Z,13.53
2018-04-23T23:49:18.664Z,10.00
2018-04-23T23:51:46.088Z,11.37
2018-04-23T23:54:13.604Z,9.87
2018-04-23T23:56:41.053Z,15.63
2018-04-23T23:59:08.524Z,13.60
